Time;durP1;ratioP1;P1;durP2;ratioP2;P2;SDS_P1;SDS_P2;PMS_P1;PMS_P2;Temp;Humidity;BMP_temperature;BMP_pressure;BME280_temperature;BME280_humidity;BME280_pressure;Samples;Min_cycle;Max_cycle;Signal;HPM_P1;HPM_P2
2024/01/24 00:00:42;;;;;;;2.73;1.00;;;;;;;;;;5070332;28;20253;-26
2024/01/24 00:03:09;;;;;;;1.20;0.83;;;;;;;;;;5067871;28;20221;-29
2024/01/24 00:05:36;;;;;;;3.40;0.60;;;;;;;;;;5070956;28;20216;-29
2024/01/24 00:08:05;;;;;;;1.53;0.77;;;;;;;;;;5071138;28;20284;-28
2024/01/24 00:10:35;;;;;;;4.90;0.73;;;;;;;;;;5068186;28;20253;-28
2024/01/24 00:13:02;;;;;;;3.83;1.00;;;;;;;;;;5071326;28;20205;-30
2024/01/24 00:15:30;;;;;;;3.37;1.27;;;;;;;;;;5071212;28;20216;-25
2024/01/24 00:17:58;;;;;;;1.77;0.87;;;;;;;;;;5066348;28;20198;-26
2024/01/24 00:20:27;;;;;;;3.23;1.03;;;;;;;;;;5067322;28;20232;-28
2024/01/24 00:22:54;;;;;;;1.30;1.00;;;;;;;;;;5071111;28;20233;-26
2024/01/24 00:25:22;;;;;;;0.90;0.70;;;;;;;;;;5059806;28;20224;-29
2024/01/24 00:27:49;;;;;;;2.10;1.27;;;;;;;;;;5070125;28;20216;-28
2024/01/24 00:30:16;;;;;;;2.47;0.83;;;;;;;;;;5070405;28;20225;-26
2024/01/24 00:32:44;;;;;;;4.63;1.00;;;;;;;;;;5070669;28;20600;-28
2024/01/24 00:35:12;;;;;;;2.63;0.60;;;;;;;;;;5059412;28;20205;-27
2024/01/24 00:37:39;;;;;;;1.23;0.70;;;;;;;;;;5065822;28;20288;-28
2024/01/24 00:40:07;;;;;;;3.57;0.80;;;;;;;;;;5060069;28;20221;-26
2024/01/24 00:42:35;;;;;;;4.80;0.80;;;;;;;;;;5068006;28;20224;-25
2024/01/24 00:45:02;;;;;;;0.97;0.60;;;;;;;;;;5070286;28;20232;-29
2024/01/24 00:47:30;;;;;;;1.50;0.57;;;;;;;;;;5070247;28;20209;-26
2024/01/24 00:49:57;;;;;;;0.90;0.70;;;;;;;;;;5060681;28;20291;-29
2024/01/24 00:52:25;;;;;;;1.57;0.73;;;;;;;;;;5062904;28;20259;-29
2024/01/24 00:54:52;;;;;;;2.40;0.67;;;;;;;;;;5051341;28;20216;-29
2024/01/24 00:57:20;;;;;;;3.83;0.90;;;;;;;;;;5067122;28;20216;-28
2024/01/24 00:59:47;;;;;;;2.17;0.50;;;;;;;;;;5068021;28;20233;-30
2024/01/24 01:02:14;;;;;;;1.30;0.70;;;;;;;;;;5066186;28;20205;-27
2024/01/24 01:04:41;;;;;;;1.00;0.43;;;;;;;;;;5050124;28;20304;-30
2024/01/24 01:07:08;;;;;;;0.53;0.40;;;;;;;;;;5069128;28;20202;-29
2024/01/24 01:09:37;;;;;;;3.13;0.60;;;;;;;;;;5063019;28;20256;-27
2024/01/24 01:12:04;;;;;;;0.50;0.50;;;;;;;;;;5066817;28;20201;-27
2024/01/24 01:14:31;;;;;;;2.37;0.80;;;;;;;;;;5068608;28;20207;-28
2024/01/24 01:16:58;;;;;;;3.07;0.70;;;;;;;;;;5067843;28;20204;-27
2024/01/24 01:19:26;;;;;;;2.97;0.53;;;;;;;;;;5059033;28;20374;-29
2024/01/24 01:21:53;;;;;;;0.97;0.50;;;;;;;;;;5060332;28;20288;-29
2024/01/24 01:24:20;;;;;;;1.17;0.50;;;;;;;;;;5056456;28;20236;-30
2024/01/24 01:26:49;;;;;;;2.70;0.50;;;;;;;;;;5066506;28;20213;-28
2024/01/24 01:29:16;;;;;;;2.67;0.80;;;;;;;;;;5067354;28;20211;-28
2024/01/24 01:31:43;;;;;;;1.23;0.80;;;;;;;;;;5063556;28;20202;-29
2024/01/24 01:34:10;;;;;;;2.90;0.80;;;;;;;;;;5062665;28;20197;-30
2024/01/24 01:36:37;;;;;;;1.37;0.60;;;;;;;;;;5070496;28;20213;-29
2024/01/24 01:39:04;;;;;;;1.13;0.70;;;;;;;;;;5063295;28;20214;-28
2024/01/24 01:41:32;;;;;;;1.00;0.57;;;;;;;;;;5062797;28;20217;-31
2024/01/24 01:44:00;;;;;;;1.63;0.70;;;;;;;;;;5071504;28;20225;-27
2024/01/24 01:46:27;;;;;;;1.20;0.57;;;;;;;;;;5071576;28;20232;-28
2024/01/24 01:48:57;;;;;;;2.17;0.90;;;;;;;;;;5061967;28;20279;-30
2024/01/24 01:51:25;;;;;;;1.07;0.47;;;;;;;;;;5060302;28;20229;-28
2024/01/24 01:53:52;;;;;;;5.10;0.60;;;;;;;;;;5061785;28;20207;-29
2024/01/24 01:56:20;;;;;;;3.00;0.70;;;;;;;;;;5063543;28;20201;-28
2024/01/24 01:58:47;;;;;;;2.03;0.80;;;;;;;;;;5070858;28;20209;-29
2024/01/24 02:01:18;;;;;;;1.17;0.60;;;;;;;;;;5063410;28;20271;-26
2024/01/24 02:03:46;;;;;;;2.23;0.63;;;;;;;;;;5060692;28;20220;-26
2024/01/24 02:06:14;;;;;;;2.33;0.60;;;;;;;;;;5069645;28;20205;-28
2024/01/24 02:08:41;;;;;;;1.70;0.80;;;;;;;;;;5060247;28;20203;-28
2024/01/24 02:11:08;;;;;;;2.97;0.80;;;;;;;;;;5065564;28;20263;-29
2024/01/24 02:13:35;;;;;;;2.43;0.70;;;;;;;;;;5070501;28;20202;-28
2024/01/24 02:16:04;;;;;;;1.60;0.70;;;;;;;;;;5070970;28;20209;-29
2024/01/24 02:18:33;;;;;;;3.17;0.80;;;;;;;;;;5062255;28;20217;-27
2024/01/24 02:21:00;;;;;;;1.07;0.60;;;;;;;;;;5068478;28;20289;-27
2024/01/24 02:23:27;;;;;;;4.20;1.00;;;;;;;;;;5067971;28;20223;-33
2024/01/24 02:25:57;;;;;;;2.90;0.70;;;;;;;;;;5059015;28;20224;-28
2024/01/24 02:28:24;;;;;;;4.53;0.77;;;;;;;;;;5070401;28;20213;-29
2024/01/24 02:30:52;;;;;;;1.70;0.53;;;;;;;;;;5070541;28;20314;-29
2024/01/24 02:33:19;;;;;;;1.93;0.60;;;;;;;;;;5059665;28;20205;-28
2024/01/24 02:35:46;;;;;;;4.27;0.93;;;;;;;;;;5070637;28;20288;-28
2024/01/24 02:38:13;;;;;;;0.63;0.50;;;;;;;;;;5069791;28;20208;-31
2024/01/24 02:40:40;;;;;;;1.97;0.70;;;;;;;;;;5057355;28;20288;-29
2024/01/24 02:43:09;;;;;;;0.63;0.60;;;;;;;;;;5072222;28;20228;-28
2024/01/24 02:45:36;;;;;;;1.57;0.60;;;;;;;;;;5068254;28;20202;-28
2024/01/24 02:48:04;;;;;;;3.47;0.90;;;;;;;;;;5065879;28;20557;-27
2024/01/24 02:50:31;;;;;;;1.20;0.90;;;;;;;;;;5063433;28;20229;-28
2024/01/24 02:52:58;;;;;;;0.97;0.67;;;;;;;;;;5070961;28;20209;-29
2024/01/24 02:55:25;;;;;;;1.33;0.90;;;;;;;;;;5056718;28;20300;-29
2024/01/24 02:57:53;;;;;;;2.53;0.90;;;;;;;;;;5067651;28;20272;-28
2024/01/24 03:00:21;;;;;;;3.50;0.90;;;;;;;;;;5070467;28;20229;-28
2024/01/24 03:02:48;;;;;;;1.00;0.67;;;;;;;;;;5063677;28;20202;-29
2024/01/24 03:05:16;;;;;;;3.13;1.20;;;;;;;;;;5060306;28;20240;-26
2024/01/24 03:07:43;;;;;;;1.00;0.80;;;;;;;;;;5070753;28;20238;-30
2024/01/24 03:10:10;;;;;;;0.70;0.70;;;;;;;;;;5066660;28;20290;-29
2024/01/24 03:12:37;;;;;;;2.37;1.00;;;;;;;;;;5070559;28;20719;-29
2024/01/24 03:15:05;;;;;;;2.33;1.03;;;;;;;;;;5070497;28;20201;-28
2024/01/24 03:17:34;;;;;;;0.70;0.60;;;;;;;;;;5064197;28;20205;-30
2024/01/24 03:20:02;;;;;;;2.50;1.00;;;;;;;;;;5066713;28;20242;-26
2024/01/24 03:22:29;;;;;;;4.40;0.70;;;;;;;;;;5069954;28;20304;-28
2024/01/24 03:24:56;;;;;;;4.07;1.27;;;;;;;;;;5058155;28;20228;-30
2024/01/24 03:27:24;;;;;;;1.43;1.00;;;;;;;;;;5070211;28;20219;-29
2024/01/24 03:29:55;;;;;;;4.80;1.07;;;;;;;;;;5069564;28;20229;-29
2024/01/24 03:32:22;;;;;;;4.83;1.13;;;;;;;;;;5058087;28;20260;-26
2024/01/24 03:34:58;;;;;;;1.83;0.60;;;;;;;;;;5058501;28;20289;-29
2024/01/24 03:37:26;;;;;;;3.33;0.73;;;;;;;;;;5062021;28;20208;-29
2024/01/24 03:39:53;;;;;;;0.97;0.73;;;;;;;;;;5065177;28;20225;-27
2024/01/24 03:42:21;;;;;;;1.43;0.90;;;;;;;;;;5066277;28;20213;-28
2024/01/24 03:44:48;;;;;;;2.33;0.80;;;;;;;;;;5069507;28;20232;-29
2024/01/24 03:47:16;;;;;;;2.13;0.73;;;;;;;;;;5068915;28;20300;-30
2024/01/24 03:49:43;;;;;;;2.00;1.10;;;;;;;;;;5064515;28;20229;-30
2024/01/24 03:52:11;;;;;;;2.27;0.80;;;;;;;;;;5068793;28;20205;-29
2024/01/24 03:54:39;;;;;;;1.53;0.70;;;;;;;;;;5057771;28;20206;-28
2024/01/24 03:57:06;;;;;;;2.43;0.90;;;;;;;;;;5066909;28;20212;-28
2024/01/24 03:59:33;;;;;;;3.57;0.80;;;;;;;;;;5069589;28;20239;-30
2024/01/24 04:02:00;;;;;;;1.47;0.80;;;;;;;;;;5069233;28;20233;-27
2024/01/24 04:04:27;;;;;;;1.60;1.20;;;;;;;;;;5063258;28;20230;-26
2024/01/24 04:06:54;;;;;;;3.57;0.87;;;;;;;;;;5068598;28;20209;-27
2024/01/24 04:09:23;;;;;;;1.23;0.70;;;;;;;;;;5065828;28;20201;-28
2024/01/24 04:11:50;;;;;;;2.00;0.70;;;;;;;;;;5061333;28;20201;-30
2024/01/24 04:14:17;;;;;;;1.70;1.00;;;;;;;;;;5066335;28;20210;-28
2024/01/24 04:16:45;;;;;;;1.80;0.83;;;;;;;;;;5066448;28;20207;-26
2024/01/24 04:19:12;;;;;;;2.07;0.80;;;;;;;;;;5065847;28;20286;-28
2024/01/24 04:21:42;;;;;;;2.73;0.83;;;;;;;;;;5061707;28;20201;-27
2024/01/24 04:24:09;;;;;;;1.77;0.60;;;;;;;;;;5050890;28;20518;-27
2024/01/24 04:26:38;;;;;;;4.43;0.63;;;;;;;;;;5063039;28;20312;-27
2024/01/24 04:29:05;;;;;;;2.63;0.90;;;;;;;;;;5062019;28;20201;-27
2024/01/24 04:31:33;;;;;;;3.77;0.70;;;;;;;;;;5063318;28;20296;-29
2024/01/24 04:34:00;;;;;;;3.67;0.80;;;;;;;;;;5061211;28;20205;-28
2024/01/24 04:36:27;;;;;;;2.93;0.80;;;;;;;;;;5068219;28;20288;-27
2024/01/24 04:38:54;;;;;;;3.00;1.00;;;;;;;;;;5063605;28;20204;-27
2024/01/24 04:41:21;;;;;;;1.57;0.80;;;;;;;;;;5063987;28;20308;-30
2024/01/24 04:43:50;;;;;;;3.33;0.83;;;;;;;;;;5068787;28;20312;-27
2024/01/24 04:46:17;;;;;;;2.17;0.90;;;;;;;;;;5065509;28;20216;-32
2024/01/24 04:48:45;;;;;;;2.63;0.70;;;;;;;;;;5060371;28;20211;-28
2024/01/24 04:51:12;;;;;;;2.20;0.87;;;;;;;;;;5059249;28;20231;-29
2024/01/24 04:53:40;;;;;;;4.00;0.87;;;;;;;;;;5060470;28;20208;-30
2024/01/24 04:56:07;;;;;;;4.07;0.80;;;;;;;;;;5056111;28;20210;-30
2024/01/24 04:58:35;;;;;;;1.77;0.90;;;;;;;;;;5065856;28;20209;-30
2024/01/24 05:01:03;;;;;;;2.30;0.80;;;;;;;;;;5069213;28;20323;-29
2024/01/24 05:03:30;;;;;;;2.07;0.80;;;;;;;;;;5054579;28;20204;-28
2024/01/24 05:05:58;;;;;;;3.50;1.10;;;;;;;;;;5059655;28;20202;-31
2024/01/24 05:08:25;;;;;;;2.57;0.73;;;;;;;;;;5066407;28;20201;-29
2024/01/24 05:10:52;;;;;;;1.10;0.97;;;;;;;;;;5065558;28;20348;-26
2024/01/24 05:13:19;;;;;;;2.50;1.00;;;;;;;;;;5069971;28;20235;-29
2024/01/24 05:15:49;;;;;;;2.53;1.03;;;;;;;;;;5064139;28;20247;-26
2024/01/24 05:18:18;;;;;;;0.80;0.60;;;;;;;;;;5062501;28;20201;-27
2024/01/24 05:20:45;;;;;;;6.23;0.80;;;;;;;;;;5066685;28;20225;-29
2024/01/24 05:23:12;;;;;;;2.37;0.90;;;;;;;;;;5069684;28;20208;-29
2024/01/24 05:25:40;;;;;;;1.57;0.60;;;;;;;;;;5060922;28;20221;-29
2024/01/24 05:28:08;;;;;;;2.93;0.87;;;;;;;;;;5060407;28;20221;-32
2024/01/24 05:30:38;;;;;;;4.40;1.40;;;;;;;;;;5065785;28;20224;-27
2024/01/24 05:33:06;;;;;;;4.60;1.07;;;;;;;;;;5065723;28;20210;-26
2024/01/24 05:35:34;;;;;;;3.30;1.17;;;;;;;;;;5062211;28;20212;-29
2024/01/24 05:38:02;;;;;;;6.17;0.97;;;;;;;;;;5062972;28;20206;-29
2024/01/24 05:40:29;;;;;;;3.63;0.93;;;;;;;;;;5059693;28;20229;-29
2024/01/24 05:42:56;;;;;;;1.90;0.70;;;;;;;;;;5062858;28;20212;-27
2024/01/24 05:45:25;;;;;;;3.13;0.83;;;;;;;;;;5067174;28;20233;-30
2024/01/24 05:47:52;;;;;;;1.70;0.80;;;;;;;;;;5056729;28;20201;-28
2024/01/24 05:50:20;;;;;;;2.33;0.70;;;;;;;;;;5065459;28;20229;-31
2024/01/24 05:52:51;;;;;;;1.70;0.70;;;;;;;;;;5066039;28;20296;-29
2024/01/24 05:55:18;;;;;;;2.70;1.03;;;;;;;;;;5050811;28;20202;-26
2024/01/24 05:57:47;;;;;;;2.87;0.90;;;;;;;;;;5067156;28;20264;-28
2024/01/24 06:00:17;;;;;;;2.23;0.90;;;;;;;;;;5073324;28;20229;-27
2024/01/24 06:02:47;;;;;;;0.73;0.73;;;;;;;;;;5061450;28;20198;-29
2024/01/24 06:05:15;;;;;;;2.73;1.13;;;;;;;;;;5069901;28;20239;-28
2024/01/24 06:07:49;;;;;;;2.03;1.03;;;;;;;;;;5072267;28;20201;-29
2024/01/24 06:10:18;;;;;;;1.53;0.70;;;;;;;;;;5062195;28;20233;-27
2024/01/24 06:12:46;;;;;;;2.20;0.83;;;;;;;;;;5067172;28;20254;-27
2024/01/24 06:15:18;;;;;;;1.10;1.00;;;;;;;;;;5073130;28;20193;-29
2024/01/24 06:17:45;;;;;;;2.37;0.80;;;;;;;;;;5068515;28;20217;-28
2024/01/24 06:20:13;;;;;;;1.20;0.50;;;;;;;;;;5066635;28;20218;-27
2024/01/24 06:22:42;;;;;;;1.50;0.90;;;;;;;;;;5073544;28;20204;-27
2024/01/24 06:25:11;;;;;;;4.03;0.80;;;;;;;;;;5060459;28;20283;-27
2024/01/24 06:27:45;;;;;;;4.33;1.10;;;;;;;;;;5070260;28;20293;-27
2024/01/24 06:30:14;;;;;;;1.50;0.60;;;;;;;;;;5073574;28;20232;-28
2024/01/24 06:32:42;;;;;;;1.03;0.70;;;;;;;;;;5068617;28;20197;-27
2024/01/24 06:35:09;;;;;;;0.97;0.80;;;;;;;;;;5069478;28;20206;-27
2024/01/24 06:37:40;;;;;;;1.70;1.07;;;;;;;;;;5073868;28;20206;-29
2024/01/24 06:40:14;;;;;;;2.30;1.00;;;;;;;;;;5065681;28;20275;-29
2024/01/24 06:42:55;;;;;;;0.73;0.50;;;;;;;;;;5073297;28;20203;-29
2024/01/24 06:45:22;;;;;;;2.23;1.17;;;;;;;;;;5072421;28;20221;-29
2024/01/24 06:48:14;;;;;;;2.40;0.80;;;;;;;;;;5065985;28;20216;-28
2024/01/24 06:50:45;;;;;;;2.40;1.00;;;;;;;;;;5064201;28;20229;-28
2024/01/24 06:53:14;;;;;;;1.33;0.80;;;;;;;;;;5065282;28;20202;-29
2024/01/24 06:55:44;;;;;;;1.60;1.03;;;;;;;;;;5060556;28;20217;-29
2024/01/24 06:58:21;;;;;;;1.23;0.60;;;;;;;;;;5072641;28;20215;-28
2024/01/24 07:00:54;;;;;;;2.70;1.27;;;;;;;;;;5073388;28;20217;-28
2024/01/24 07:03:23;;;;;;;3.73;0.80;;;;;;;;;;5065864;28;20210;-26
2024/01/24 07:05:57;;;;;;;1.87;0.90;;;;;;;;;;5073426;28;20232;-27
2024/01/24 07:08:25;;;;;;;1.50;0.70;;;;;;;;;;5070170;28;20214;-27
2024/01/24 07:10:52;;;;;;;1.27;0.77;;;;;;;;;;5060565;28;20302;-27
2024/01/24 07:13:21;;;;;;;2.57;0.83;;;;;;;;;;5071285;28;20212;-28
2024/01/24 07:15:50;;;;;;;1.80;0.80;;;;;;;;;;5066526;28;20198;-29
2024/01/24 07:18:17;;;;;;;2.27;1.00;;;;;;;;;;5069192;28;20201;-30
2024/01/24 07:20:47;;;;;;;4.77;0.90;;;;;;;;;;5068190;28;20225;-27
2024/01/24 07:23:15;;;;;;;0.90;0.70;;;;;;;;;;5071648;28;20338;-28
2024/01/24 07:25:47;;;;;;;0.67;0.67;;;;;;;;;;5053837;28;20251;-29
2024/01/24 07:28:14;;;;;;;4.23;1.07;;;;;;;;;;5067936;28;20292;-26
2024/01/24 07:30:43;;;;;;;2.37;0.77;;;;;;;;;;5071844;28;20221;-26
2024/01/24 07:33:11;;;;;;;2.00;0.90;;;;;;;;;;5063521;28;20221;-27
2024/01/24 07:35:41;;;;;;;0.87;0.70;;;;;;;;;;5057601;28;20198;-29
2024/01/24 07:38:08;;;;;;;2.70;0.80;;;;;;;;;;5072469;28;20229;-29
2024/01/24 07:40:39;;;;;;;0.80;0.77;;;;;;;;;;5060400;28;20301;-27
2024/01/24 07:43:07;;;;;;;2.03;1.00;;;;;;;;;;5073653;28;20197;-27
2024/01/24 07:45:36;;;;;;;1.17;0.63;;;;;;;;;;5073766;28;20240;-28
2024/01/24 07:48:13;;;;;;;0.80;0.67;;;;;;;;;;5072721;28;20220;-26
2024/01/24 07:50:41;;;;;;;1.30;0.83;;;;;;;;;;5060374;28;20266;-29
2024/01/24 07:53:08;;;;;;;1.67;0.67;;;;;;;;;;5068560;28;20283;-31
2024/01/24 07:55:36;;;;;;;0.63;0.57;;;;;;;;;;5060025;28;20213;-29
2024/01/24 07:58:03;;;;;;;0.67;0.67;;;;;;;;;;5067237;28;20287;-26
2024/01/24 08:00:31;;;;;;;0.60;0.60;;;;;;;;;;5072623;28;20260;-29
2024/01/24 08:02:59;;;;;;;0.50;0.50;;;;;;;;;;5072863;28;20197;-25
2024/01/24 08:05:29;;;;;;;0.60;0.47;;;;;;;;;;5060664;28;20226;-29
2024/01/24 08:07:57;;;;;;;1.10;0.73;;;;;;;;;;5066019;28;20201;-27
2024/01/24 08:10:24;;;;;;;0.90;0.40;;;;;;;;;;5058942;28;20218;-26
2024/01/24 08:12:52;;;;;;;1.00;0.40;;;;;;;;;;5066004;28;20207;-26
2024/01/24 08:15:19;;;;;;;0.87;0.50;;;;;;;;;;5071453;28;20300;-30
2024/01/24 08:17:46;;;;;;;0.63;0.50;;;;;;;;;;5065627;28;20201;-27
2024/01/24 08:20:19;;;;;;;2.20;0.50;;;;;;;;;;5067943;28;20224;-27
2024/01/24 08:22:48;;;;;;;0.50;0.50;;;;;;;;;;5063854;28;20210;-28
2024/01/24 08:25:19;;;;;;;1.00;0.37;;;;;;;;;;5056873;28;20291;-29
2024/01/24 08:27:51;;;;;;;0.90;0.83;;;;;;;;;;5068301;28;20201;-26
2024/01/24 08:30:18;;;;;;;2.10;0.77;;;;;;;;;;5071234;28;20332;-27
2024/01/24 08:32:46;;;;;;;2.37;0.70;;;;;;;;;;5067509;28;20212;-29
2024/01/24 08:35:13;;;;;;;0.97;0.70;;;;;;;;;;5070870;28;20208;-28
2024/01/24 08:37:41;;;;;;;0.97;0.50;;;;;;;;;;5067964;28;20249;-27
2024/01/24 08:40:17;;;;;;;0.60;0.60;;;;;;;;;;5057207;28;20236;-27
2024/01/24 08:42:44;;;;;;;0.60;0.60;;;;;;;;;;5065635;28;20209;-27
2024/01/24 08:45:15;;;;;;;0.40;0.40;;;;;;;;;;5065262;28;20225;-29
2024/01/24 08:47:43;;;;;;;1.13;0.40;;;;;;;;;;5066929;28;20200;-31
2024/01/24 08:50:15;;;;;;;1.20;0.60;;;;;;;;;;5076372;28;20293;-28
2024/01/24 08:52:44;;;;;;;0.93;0.57;;;;;;;;;;5076346;28;20212;-27
2024/01/24 08:55:25;;;;;;;0.20;0.20;;;;;;;;;;5061286;28;20252;-27
2024/01/24 08:57:57;;;;;;;1.07;0.50;;;;;;;;;;5073361;28;20193;-26
2024/01/24 09:00:27;;;;;;;0.23;0.20;;;;;;;;;;5076107;28;20315;-28
2024/01/24 09:03:03;;;;;;;0.30;0.30;;;;;;;;;;5068397;28;20197;-29
2024/01/24 09:05:37;;;;;;;0.37;0.30;;;;;;;;;;5062671;28;20233;-28
2024/01/24 09:08:11;;;;;;;0.73;0.43;;;;;;;;;;5075167;28;20205;-29
2024/01/24 09:10:43;;;;;;;0.40;0.40;;;;;;;;;;5062258;28;20239;-29
2024/01/24 09:13:11;;;;;;;0.20;0.20;;;;;;;;;;5075490;28;20202;-30
2024/01/24 09:15:38;;;;;;;0.40;0.40;;;;;;;;;;5074923;28;20205;-28
2024/01/24 09:18:06;;;;;;;0.20;0.20;;;;;;;;;;5075308;28;20296;-28
2024/01/24 09:20:34;;;;;;;1.23;0.50;;;;;;;;;;5060936;28;20233;-29
2024/01/24 09:23:02;;;;;;;0.17;0.17;;;;;;;;;;5070232;28;20198;-28
2024/01/24 09:25:34;;;;;;;0.27;0.27;;;;;;;;;;5060254;28;20235;-26
2024/01/24 09:28:03;;;;;;;0.20;0.20;;;;;;;;;;5061319;28;20197;-27
2024/01/24 09:30:34;;;;;;;2.33;0.60;;;;;;;;;;5074119;28;20233;-27
2024/01/24 09:33:03;;;;;;;2.10;0.40;;;;;;;;;;5071192;28;20281;-27
2024/01/24 09:35:31;;;;;;;0.37;0.37;;;;;;;;;;5073516;28;20205;-27
2024/01/24 09:38:00;;;;;;;0.70;0.20;;;;;;;;;;5075465;28;20258;-28
2024/01/24 09:40:28;;;;;;;0.37;0.30;;;;;;;;;;5066635;28;20282;-26
2024/01/24 09:43:02;;;;;;;0.30;0.30;;;;;;;;;;5068735;28;20208;-27
2024/01/24 09:45:43;;;;;;;0.20;0.20;;;;;;;;;;5074184;28;20220;-29
2024/01/24 09:48:13;;;;;;;1.67;0.20;;;;;;;;;;5073101;28;20207;-29
2024/01/24 09:50:54;;;;;;;0.50;0.30;;;;;;;;;;5073376;28;20232;-26
2024/01/24 09:53:22;;;;;;;0.17;0.17;;;;;;;;;;5075017;28;20234;-26
2024/01/24 09:58:20;;;;;;;0.30;0.30;;;;;;;;;;5052501;28;20304;-37
2024/01/24 10:00:51;;;;;;;0.70;0.50;;;;;;;;;;5035839;28;20226;-40
2024/01/24 10:03:22;;;;;;;0.30;0.30;;;;;;;;;;5045364;28;20335;-34
2024/01/24 10:06:07;;;;;;;0.40;0.30;;;;;;;;;;5034587;28;20326;-40
2024/01/24 10:08:51;;;;;;;0.27;0.27;;;;;;;;;;5042168;28;20583;-36
2024/01/24 10:14:13;;;;;;;0.20;0.20;;;;;;;;;;5048395;28;20293;-37
2024/01/24 10:16:45;;;;;;;0.40;0.30;;;;;;;;;;5054175;28;20202;-34
2024/01/24 10:19:12;;;;;;;0.50;0.30;;;;;;;;;;5038507;28;20206;-31
2024/01/24 10:21:46;;;;;;;0.43;0.30;;;;;;;;;;5044732;28;20219;-37
2024/01/24 10:27:10;;;;;;;0.20;0.20;;;;;;;;;;5044299;28;20241;-36
2024/01/24 10:29:47;;;;;;;0.20;0.20;;;;;;;;;;5042970;28;20577;-34
2024/01/24 10:35:24;;;;;;;0.20;0.20;;;;;;;;;;5035618;28;20263;-37
2024/01/24 10:37:52;;;;;;;0.20;0.20;;;;;;;;;;5035036;28;20386;-37
2024/01/24 10:40:25;;;;;;;0.20;0.20;;;;;;;;;;5046100;28;20404;-34
2024/01/24 10:43:13;;;;;;;0.10;0.10;;;;;;;;;;5039868;28;20233;-36
2024/01/24 10:45:49;;;;;;;0.10;0.10;;;;;;;;;;5040186;28;20236;-37
2024/01/24 10:48:22;;;;;;;0.30;0.30;;;;;;;;;;5031928;28;20287;-33
2024/01/24 10:50:52;;;;;;;0.47;0.43;;;;;;;;;;5034982;28;20223;-34
2024/01/24 10:56:12;;;;;;;0.83;0.40;;;;;;;;;;4949187;28;20261;-37
2024/01/24 10:58:48;;;;;;;0.20;0.20;;;;;;;;;;4988530;28;20215;-32
2024/01/24 11:04:00;;;;;;;0.20;0.20;;;;;;;;;;5024466;28;20297;-34
2024/01/24 11:06:30;;;;;;;0.23;0.20;;;;;;;;;;5042486;28;20223;-35
2024/01/24 11:09:16;;;;;;;0.20;0.20;;;;;;;;;;5029393;28;20265;-35
2024/01/24 11:11:47;;;;;;;0.50;0.20;;;;;;;;;;5048257;28;20234;-37
2024/01/24 11:14:14;;;;;;;0.20;0.20;;;;;;;;;;5050255;28;20198;-37
2024/01/24 11:16:42;;;;;;;0.20;0.20;;;;;;;;;;5050580;28;20278;-35
2024/01/24 11:19:26;;;;;;;0.10;0.10;;;;;;;;;;5039728;28;20210;-34
2024/01/24 11:21:56;;;;;;;0.20;0.20;;;;;;;;;;5039727;28;20217;-38
2024/01/24 11:24:38;;;;;;;0.77;0.30;;;;;;;;;;5035387;28;20301;-36
2024/01/24 11:27:06;;;;;;;1.47;0.30;;;;;;;;;;5023056;28;20226;-37
2024/01/24 11:29:40;;;;;;;0.20;0.20;;;;;;;;;;5038740;28;20305;-34
2024/01/24 11:35:27;;;;;;;0.40;0.30;;;;;;;;;;5044543;28;20280;-38
2024/01/24 11:37:57;;;;;;;0.17;0.13;;;;;;;;;;5041138;28;20202;-36
2024/01/24 11:40:24;;;;;;;0.10;0.10;;;;;;;;;;5044598;28;20329;-37
2024/01/24 11:42:54;;;;;;;0.10;0.10;;;;;;;;;;5032549;28;20210;-39
2024/01/24 11:45:22;;;;;;;0.40;0.30;;;;;;;;;;5042997;28;20206;-38
2024/01/24 11:47:50;;;;;;;0.63;0.30;;;;;;;;;;5027848;28;20227;-36
2024/01/24 11:50:17;;;;;;;0.20;0.20;;;;;;;;;;5037250;28;20281;-35
2024/01/24 11:52:45;;;;;;;0.20;0.20;;;;;;;;;;5031453;28;20275;-38
2024/01/24 11:55:15;;;;;;;0.20;0.20;;;;;;;;;;5034011;28;20214;-37
2024/01/24 11:57:42;;;;;;;0.67;0.23;;;;;;;;;;5040420;28;20214;-36
2024/01/24 12:00:15;;;;;;;0.63;0.30;;;;;;;;;;5043362;28;20233;-35
2024/01/24 12:02:43;;;;;;;0.57;0.57;;;;;;;;;;5031929;28;20210;-32
2024/01/24 12:05:10;;;;;;;37.57;22.97;;;;;;;;;;5029189;28;20202;-35
2024/01/24 12:07:37;;;;;;;0.80;0.80;;;;;;;;;;5039245;28;20227;-33
2024/01/24 12:10:07;;;;;;;0.47;0.47;;;;;;;;;;5039809;28;20226;-35
2024/01/24 12:12:37;;;;;;;0.27;0.27;;;;;;;;;;5049207;28;20213;-38
2024/01/24 12:15:04;;;;;;;0.77;0.77;;;;;;;;;;5049724;28;20206;-34
2024/01/24 12:17:35;;;;;;;0.23;0.23;;;;;;;;;;5037814;28;20212;-37
2024/01/24 12:20:03;;;;;;;1.80;0.33;;;;;;;;;;5039328;28;20226;-34
2024/01/24 12:22:31;;;;;;;0.10;0.10;;;;;;;;;;5041046;28;20241;-37
2024/01/24 12:25:00;;;;;;;0.50;0.50;;;;;;;;;;5035185;28;20208;-36
2024/01/24 12:27:29;;;;;;;0.30;0.30;;;;;;;;;;5041798;28;20265;-38
2024/01/24 12:30:10;;;;;;;0.20;0.20;;;;;;;;;;5037844;28;20226;-35
2024/01/24 12:32:37;;;;;;;0.20;0.20;;;;;;;;;;5044316;28;20210;-43
2024/01/24 12:35:06;;;;;;;0.40;0.40;;;;;;;;;;5039992;28;20233;-35
2024/01/24 12:37:34;;;;;;;0.83;0.83;;;;;;;;;;5051933;28;20216;-33
2024/01/24 12:40:13;;;;;;;0.30;0.30;;;;;;;;;;5032639;28;20222;-35
2024/01/24 12:42:41;;;;;;;0.20;0.20;;;;;;;;;;5030864;28;20206;-39
2024/01/24 12:45:20;;;;;;;1.50;0.53;;;;;;;;;;5038384;28;20206;-35
2024/01/24 12:47:54;;;;;;;1.23;0.80;;;;;;;;;;5045053;28;20249;-36
2024/01/24 12:53:17;;;;;;;0.90;0.70;;;;;;;;;;5042745;28;20206;-36
2024/01/24 12:55:46;;;;;;;2.23;0.60;;;;;;;;;;5030027;28;20206;-38
2024/01/24 13:00:59;;;;;;;3.90;1.00;;;;;;;;;;5009409;28;20269;-35
2024/01/24 13:03:29;;;;;;;2.47;0.60;;;;;;;;;;5037318;28;20214;-36
2024/01/24 13:06:07;;;;;;;3.33;0.80;;;;;;;;;;5049259;28;20201;-38
2024/01/24 13:08:34;;;;;;;0.80;0.50;;;;;;;;;;5037169;28;20285;-39
2024/01/24 13:11:04;;;;;;;0.37;0.37;;;;;;;;;;5040985;28;20309;-36
2024/01/24 13:13:31;;;;;;;0.30;0.30;;;;;;;;;;5041643;28;20210;-34
2024/01/24 13:16:16;;;;;;;1.47;0.30;;;;;;;;;;5033068;28;20210;-35
2024/01/24 13:18:47;;;;;;;1.87;0.50;;;;;;;;;;5045526;28;20253;-36
2024/01/24 13:21:26;;;;;;;0.40;0.37;;;;;;;;;;5041222;28;20230;-34
2024/01/24 13:24:03;;;;;;;3.83;0.60;;;;;;;;;;5015777;28;20229;-34
2024/01/24 13:26:42;;;;;;;0.30;0.30;;;;;;;;;;5041637;28;20225;-36
2024/01/24 13:29:24;;;;;;;0.53;0.40;;;;;;;;;;5037072;28;20217;-40
2024/01/24 13:35:02;;;;;;;1.33;0.33;;;;;;;;;;5039638;28;20213;-37
2024/01/24 13:37:42;;;;;;;0.97;0.30;;;;;;;;;;5040529;28;20278;-35
2024/01/24 13:40:13;;;;;;;0.60;0.60;;;;;;;;;;5035553;28;20228;-35
2024/01/24 13:42:41;;;;;;;2.20;0.73;;;;;;;;;;5051853;28;20233;-33
2024/01/24 13:45:12;;;;;;;3.53;0.50;;;;;;;;;;5040447;28;20290;-32
2024/01/24 13:47:52;;;;;;;1.13;0.50;;;;;;;;;;5040265;28;20229;-38
2024/01/24 13:50:22;;;;;;;1.67;0.53;;;;;;;;;;5033731;28;20230;-37
2024/01/24 13:52:51;;;;;;;2.63;0.70;;;;;;;;;;5036577;28;20210;-36
2024/01/24 13:55:22;;;;;;;0.50;0.40;;;;;;;;;;5030995;28;20209;-38
2024/01/24 13:57:51;;;;;;;0.60;0.60;;;;;;;;;;5049241;28;20273;-32
2024/01/24 14:00:19;;;;;;;1.27;0.60;;;;;;;;;;5039100;28;20241;-33
2024/01/24 14:02:49;;;;;;;0.67;0.67;;;;;;;;;;5035064;28;20198;-36
2024/01/24 14:05:17;;;;;;;0.23;0.20;;;;;;;;;;5042170;28;20260;-36
2024/01/24 14:07:44;;;;;;;0.53;0.40;;;;;;;;;;5039955;28;20236;-33
2024/01/24 14:10:21;;;;;;;1.90;0.30;;;;;;;;;;5036182;28;20247;-33
2024/01/24 14:12:51;;;;;;;0.57;0.40;;;;;;;;;;5048553;28;20264;-31
2024/01/24 14:15:21;;;;;;;2.17;0.40;;;;;;;;;;5046458;28;20211;-38
2024/01/24 14:17:59;;;;;;;1.90;0.90;;;;;;;;;;5037301;28;20227;-33
2024/01/24 14:20:26;;;;;;;2.70;0.50;;;;;;;;;;5031905;28;20269;-33
2024/01/24 14:22:54;;;;;;;1.70;0.50;;;;;;;;;;5040226;28;20238;-44
2024/01/24 14:25:25;;;;;;;1.60;0.70;;;;;;;;;;5039605;28;20218;-41
2024/01/24 14:27:52;;;;;;;2.20;0.40;;;;;;;;;;5049851;28;20232;-36
2024/01/24 14:30:22;;;;;;;2.13;0.50;;;;;;;;;;5051112;28;20340;-36
2024/01/24 14:32:49;;;;;;;1.17;0.60;;;;;;;;;;5040882;28;20206;-36
2024/01/24 14:35:20;;;;;;;3.40;0.73;;;;;;;;;;5045305;28;20245;-38
2024/01/24 14:37:54;;;;;;;2.87;0.60;;;;;;;;;;5031108;28;20215;-33
2024/01/24 14:40:35;;;;;;;1.10;0.47;;;;;;;;;;5041425;28;20236;-36
2024/01/24 14:43:03;;;;;;;1.50;0.53;;;;;;;;;;5040479;28;20241;-33
2024/01/24 14:45:34;;;;;;;3.57;0.70;;;;;;;;;;5037349;28;20210;-38
2024/01/24 14:48:09;;;;;;;1.73;0.40;;;;;;;;;;5032998;28;20222;-40
2024/01/24 14:51:01;;;;;;;3.00;0.70;;;;;;;;;;5031571;28;20229;-32
2024/01/24 14:53:31;;;;;;;2.30;0.83;;;;;;;;;;5035109;28;20307;-42
2024/01/24 14:56:06;;;;;;;3.57;0.73;;;;;;;;;;5037890;28;20222;-34
2024/01/24 14:58:34;;;;;;;0.77;0.50;;;;;;;;;;5044480;28;20199;-33
2024/01/24 15:01:02;;;;;;;1.17;0.80;;;;;;;;;;5041715;28;20226;-35
2024/01/24 15:03:29;;;;;;;1.27;0.50;;;;;;;;;;5046529;28;20234;-37
2024/01/24 15:05:56;;;;;;;3.17;0.80;;;;;;;;;;5043325;28;20210;-33
2024/01/24 15:08:23;;;;;;;3.23;0.90;;;;;;;;;;5042030;28;20234;-33
2024/01/24 15:10:50;;;;;;;2.57;0.80;;;;;;;;;;5036584;28;20321;-37
2024/01/24 15:13:19;;;;;;;2.87;0.90;;;;;;;;;;5043124;28;20632;-38
2024/01/24 15:15:50;;;;;;;2.10;1.23;;;;;;;;;;5050225;28;20210;-36
2024/01/24 15:18:18;;;;;;;0.40;0.30;;;;;;;;;;5046061;28;20213;-36
2024/01/24 15:20:48;;;;;;;4.40;0.73;;;;;;;;;;5034477;28;20261;-33
2024/01/24 15:23:21;;;;;;;2.13;0.90;;;;;;;;;;5048129;28;20210;-32
2024/01/24 15:26:00;;;;;;;1.87;0.80;;;;;;;;;;5031602;28;20213;-34